createdAt,value
2014-09-17T20:55:32.719Z,230
2014-09-17T20:55:50.906Z,251
2014-09-17T20:56:09.109Z,234
2014-09-17T20:56:27.297Z,230
2014-09-17T20:56:45.501Z,251
2014-09-17T20:57:03.689Z,239
2014-09-17T20:57:21.892Z,235
2014-09-17T20:57:40.081Z,248
2014-09-17T20:57:58.284Z,253
2014-09-17T20:58:16.597Z,249
2014-09-17T20:58:34.708Z,248
2014-09-17T20:58:52.896Z,251
2014-09-17T20:59:11.099Z,234
2014-09-17T20:59:29.286Z,248
2014-09-17T20:59:47.491Z,250
2014-09-17T21:00:05.679Z,230
2014-09-17T21:00:23.882Z,228
2014-09-17T21:00:42.072Z,248
2014-09-17T21:01:00.275Z,249
2014-09-17T21:01:18.467Z,231
2014-09-17T21:01:36.672Z,249
2014-09-17T21:01:54.875Z,228
2014-09-17T21:02:13.063Z,252
2014-09-17T21:02:31.315Z,228
2014-09-17T21:02:49.455Z,238
2014-09-17T21:03:07.659Z,246
2014-09-17T21:03:25.846Z,228
2014-09-17T21:03:44.051Z,227
2014-09-17T21:04:02.254Z,230
2014-09-17T21:04:20.457Z,231
2014-09-17T21:04:38.663Z,231
2014-09-17T21:04:56.850Z,239
2014-09-17T21:05:15.053Z,250
2014-09-17T21:05:33.257Z,227
2014-09-17T21:05:51.460Z,226
2014-09-17T21:06:09.664Z,247
2014-09-17T21:06:27.851Z,225
2014-09-17T21:06:46.056Z,233
2014-09-17T21:07:04.259Z,225
2014-09-17T21:07:22.447Z,243
2014-09-17T21:15:20.134Z,224
2014-09-17T21:15:38.323Z,219
2014-09-17T21:15:56.526Z,232
2014-09-17T21:16:14.729Z,221
2014-09-17T21:16:32.920Z,235
2014-09-17T21:16:51.123Z,237
2014-09-17T21:17:09.311Z,239
2014-09-17T21:17:27.514Z,230
2014-09-17T21:17:45.719Z,231
2014-09-17T21:18:03.906Z,241
2014-09-17T21:18:22.109Z,228
2014-09-17T21:18:40.299Z,242
2014-09-17T21:18:58.502Z,230
2014-09-17T21:19:16.705Z,237
2014-09-17T21:19:34.894Z,241
2014-09-17T21:19:53.097Z,241
2014-09-17T21:20:11.284Z,237
2014-09-17T21:20:29.487Z,220
2014-09-17T21:20:47.677Z,242
2014-09-17T21:21:05.880Z,229
2014-09-17T21:21:24.068Z,219
2014-09-17T21:21:42.273Z,222
2014-09-17T21:22:00.460Z,241
2014-09-17T21:22:18.663Z,219
2014-09-17T21:22:36.853Z,220
2014-09-17T21:22:55.056Z,234
2014-09-17T21:23:13.243Z,238
2014-09-17T21:23:31.447Z,223
2014-09-17T21:23:49.636Z,232
2014-09-17T21:24:07.839Z,234
2014-09-17T21:24:26.027Z,0
2014-09-17T21:24:44.231Z,0
2014-09-17T21:25:02.418Z,0
2014-09-17T21:25:20.606Z,0
2014-09-17T21:25:38.812Z,0
2014-09-17T21:25:56.999Z,0
2014-09-17T21:26:15.187Z,0
2014-09-17T21:26:33.376Z,0
2014-09-17T21:26:51.564Z,0
2014-09-17T21:27:09.751Z,0
2014-09-17T21:27:27.939Z,0
2014-09-17T21:27:46.144Z,0
2014-09-17T21:28:04.332Z,0
2014-09-17T21:28:22.519Z,0
2014-09-17T21:28:40.709Z,0
2014-09-17T21:28:58.912Z,0
2014-09-17T21:29:17.099Z,0
2014-09-17T21:29:35.289Z,0
2014-09-17T21:29:53.476Z,0
2014-09-17T21:30:11.679Z,0
2014-09-17T21:30:29.867Z,0
2014-09-17T21:30:48.055Z,0
2014-09-17T21:31:06.243Z,0
2014-09-17T21:31:24.446Z,0
2014-09-17T21:31:42.635Z,0
2014-09-17T21:32:00.823Z,0
2014-09-17T21:32:19.010Z,0
2014-09-17T21:32:37.200Z,0
2014-09-17T21:32:55.403Z,0
2014-09-17T21:33:13.591Z,0
2014-09-17T21:33:31.778Z,0
2014-09-17T21:33:49.968Z,0
2014-09-17T21:34:08.155Z,0
2014-09-17T21:34:26.358Z,0
2014-09-17T21:34:44.548Z,0
2014-09-17T21:35:02.735Z,0
2014-09-17T21:35:20.923Z,0
2014-09-17T21:35:39.112Z,0
2014-09-17T21:35:57.300Z,0
2014-09-17T21:36:15.487Z,0
2014-09-17T21:36:33.677Z,0
2014-09-17T21:36:51.880Z,0
2014-09-17T21:37:10.067Z,0
2014-09-17T21:37:28.255Z,0
2014-09-17T21:37:46.444Z,0
2014-09-17T21:38:04.632Z,0
2014-09-17T21:38:22.819Z,0
2014-09-17T21:38:41.009Z,0
2014-09-17T21:38:59.196Z,0
2014-09-17T21:39:17.384Z,0
2014-09-17T21:39:35.573Z,0
2014-09-17T21:39:53.761Z,0
2014-09-17T21:40:11.948Z,0
2014-09-17T21:40:30.136Z,0
2014-09-17T21:40:48.325Z,0
2014-09-17T21:41:06.513Z,0
2014-09-17T21:41:24.700Z,0
2014-09-17T21:41:42.889Z,0
2014-09-17T21:42:01.092Z,0
2014-09-17T21:42:19.264Z,0
2014-09-17T21:42:37.453Z,0
2014-09-17T21:42:55.641Z,0
2014-09-17T21:43:13.828Z,0
2014-09-17T21:43:32.016Z,0
2014-09-17T21:43:50.205Z,0
2014-09-17T21:44:08.393Z,0
2014-09-17T21:44:26.580Z,0
2014-09-17T21:44:44.770Z,0
2014-09-17T21:45:02.957Z,0
2014-09-17T21:45:21.145Z,0
2014-09-17T21:45:39.334Z,0
2014-09-17T21:45:57.522Z,0
2014-09-17T21:46:15.709Z,0
2014-09-17T21:46:33.900Z,0
2014-09-17T21:46:52.087Z,0
2014-09-17T21:47:10.275Z,0
2014-09-17T21:47:28.462Z,0
2014-09-17T21:47:46.651Z,0
2014-09-17T21:48:04.838Z,0
2014-09-17T21:48:23.041Z,0
2014-09-17T21:48:41.231Z,0
2014-09-17T21:48:59.418Z,0
2014-09-17T21:49:17.606Z,0
2014-09-17T21:49:35.795Z,0
2014-09-17T21:49:53.983Z,0
